createdAt,value
2019-02-15T08:22:14.143Z,15.20
2019-02-15T08:24:43.064Z,8.20
2019-02-15T08:27:11.988Z,8.20
2019-02-15T08:29:40.940Z,8.20
2019-02-15T08:32:09.817Z,8.30
2019-02-15T08:34:38.820Z,8.30
2019-02-15T08:37:07.813Z,8.30
2019-02-15T08:39:36.863Z,8.40
2019-02-15T08:42:05.809Z,8.60
2019-02-15T08:44:34.770Z,8.80
2019-02-15T08:47:04.076Z,9.10
2019-02-15T08:54:30.532Z,9.30
2019-02-15T08:56:59.754Z,9.70
2019-02-15T08:59:29.097Z,9.70
2019-02-15T09:02:26.452Z,9.90
2019-02-15T09:04:55.424Z,10.10
2019-02-15T09:07:24.456Z,10.20
2019-02-15T09:09:55.480Z,10.20
2019-02-15T09:12:24.848Z,10.10
2019-02-15T09:14:53.869Z,10.20
2019-02-15T09:17:23.000Z,10.60
2019-02-15T09:19:51.928Z,11.00
2019-02-15T09:22:20.840Z,11.20
2019-02-15T09:24:49.728Z,11.50
2019-02-15T09:59:43.173Z,11.80
2019-02-15T10:02:12.049Z,12.90
2019-02-15T10:12:06.561Z,13.10
2019-02-15T10:14:35.577Z,13.50
2019-02-15T10:51:43.374Z,13.80
2019-02-15T10:56:40.726Z,15.90
2019-02-15T10:59:11.192Z,16.20
2019-02-15T11:01:40.270Z,16.10
2019-02-15T11:06:37.586Z,16.40
2019-02-15T11:11:36.466Z,16.80
2019-02-15T11:14:05.470Z,17.10
2019-02-15T11:16:34.327Z,17.10
2019-02-15T11:19:03.254Z,17.20
2019-02-15T11:21:32.122Z,17.20
2019-02-15T11:24:00.999Z,17.10
2019-02-15T11:26:30.003Z,17.30
2019-02-15T11:28:58.883Z,17.60
2019-02-15T11:31:28.163Z,17.60
2019-02-15T11:53:44.791Z,17.70
2019-02-15T11:56:13.788Z,18.70
2019-02-15T11:58:43.031Z,18.50
2019-02-15T12:01:12.062Z,18.30
2019-02-15T12:03:40.987Z,18.50
2019-02-15T12:06:09.959Z,18.30
2019-02-15T12:08:38.835Z,18.60
2019-02-15T12:11:08.176Z,18.50
2019-02-15T12:13:37.376Z,18.40
2019-02-15T12:16:06.345Z,18.20
2019-02-15T12:18:35.310Z,17.90
2019-02-15T12:21:04.229Z,18.00
2019-02-15T12:23:33.168Z,18.10
2019-02-15T12:26:02.179Z,18.40
2019-02-15T12:28:31.142Z,18.70
2019-02-15T12:31:00.125Z,18.60
2019-02-15T12:35:57.520Z,18.90
2019-02-15T12:38:26.380Z,19.40
2019-02-15T12:40:55.325Z,19.40
2019-02-15T12:43:24.413Z,19.40
2019-02-15T12:45:53.284Z,19.50
2019-02-15T12:48:22.272Z,19.30
2019-02-15T12:50:51.227Z,19.40
2019-02-15T12:53:20.485Z,19.50
2019-02-15T12:55:49.604Z,19.20
2019-02-15T12:58:18.557Z,19.20
2019-02-15T13:00:47.501Z,19.00
2019-02-15T13:03:16.384Z,18.80
2019-02-15T13:05:45.316Z,19.00
2019-02-15T13:08:14.207Z,18.90
2019-02-15T13:10:43.817Z,19.00
2019-02-15T13:13:12.705Z,19.20
2019-02-15T13:15:41.660Z,19.20
2019-02-15T13:18:10.606Z,19.30
2019-02-15T13:20:39.444Z,19.60
2019-02-15T13:23:08.409Z,19.60
2019-02-15T13:25:37.381Z,19.60
2019-02-15T13:28:06.320Z,19.40
2019-02-15T13:30:35.405Z,19.50
2019-02-15T13:33:04.422Z,19.60
2019-02-15T13:35:33.616Z,19.80
2019-02-15T13:38:02.567Z,19.60
2019-02-15T13:40:31.524Z,19.70
2019-02-15T13:43:00.537Z,19.60
2019-02-15T13:45:29.672Z,19.50
2019-02-15T13:47:58.649Z,19.80
2019-02-15T13:50:27.841Z,19.60
2019-02-15T13:52:56.745Z,19.70
2019-02-15T13:55:25.698Z,19.80
